Archdale, North Carolina
Current Conditions -  °F | °C
As of 11:54 AM on Friday 24 Oct 2014 (Local Time) from KGSO Reporting Station
Broken Clouds Broken Clouds  
Wind Chill: 63°   Ceiling: 25000
Heat Index: 63°   Visibility: 10mi
Dew Point: 40°   Wind: 3mph
Humidity: 43%   Direction: 350°N
Pressure: 30.06"   Gusts: NA
Location:  35.9136°N, 79.9465°W
Report Text: KGSO 241554Z 35003KT 10SM BKN250 17/04 A3006 RMK AO2 SLP175 T01720044
Loading
Personal Weather Stations






























Interactive Weather Map
Tropical Storm Tracking
New forecast layout! Learn more

10-Day Weather Forecast

Advertisements
Track Severe Weather on mobile